createdAt,value
2022-09-04T00:02:24.892Z,8.02
2022-09-04T00:05:25.541Z,8.48
2022-09-04T00:08:11.737Z,8.95
2022-09-04T00:10:49.719Z,8.82
2022-09-04T00:13:27.451Z,9.20
2022-09-04T00:16:12.568Z,10.63
2022-09-04T00:18:59.281Z,9.80
2022-09-04T00:21:29.604Z,9.82
2022-09-04T00:24:01.376Z,10.00
2022-09-04T00:26:40.601Z,10.20
2022-09-04T00:29:42.765Z,10.95
2022-09-04T00:32:15.641Z,11.13
2022-09-04T00:34:55.654Z,11.52
2022-09-04T00:37:28.353Z,11.55
2022-09-04T00:40:04.678Z,11.40
2022-09-04T00:43:07.574Z,11.55
2022-09-04T00:46:09.561Z,13.20
2022-09-04T00:48:39.679Z,13.82
2022-09-04T00:51:30.807Z,12.88
2022-09-04T00:54:10.497Z,12.57
2022-09-04T00:57:14.263Z,13.68
2022-09-04T00:59:49.838Z,13.98
2022-09-04T01:02:36.310Z,14.73
2022-09-04T01:05:32.034Z,14.98
2022-09-04T01:08:07.834Z,15.85
2022-09-04T01:10:57.650Z,15.00
2022-09-04T01:13:51.132Z,14.23
2022-09-04T01:16:32.724Z,16.38
2022-09-04T01:19:11.392Z,15.52
2022-09-04T01:22:07.732Z,14.40
2022-09-04T01:25:12.380Z,15.10
2022-09-04T01:27:59.445Z,15.82
2022-09-04T01:30:27.092Z,14.63
2022-09-04T01:33:04.816Z,14.70
2022-09-04T01:35:58.909Z,15.77
2022-09-04T01:38:53.488Z,15.95
2022-09-04T01:41:23.737Z,15.68
2022-09-04T01:43:51.728Z,16.58
2022-09-04T01:46:37.021Z,16.17
2022-09-04T01:49:22.812Z,17.40
2022-09-04T01:51:58.152Z,16.98
2022-09-04T01:54:58.313Z,15.95
2022-09-04T01:57:51.378Z,16.55
2022-09-04T02:00:22.931Z,17.27
2022-09-04T02:02:56.558Z,16.58
2022-09-04T02:05:55.057Z,16.15
2022-09-04T02:08:31.141Z,18.27
2022-09-04T02:11:27.983Z,17.80
2022-09-04T02:14:18.538Z,17.55
2022-09-04T02:17:12.717Z,18.58
2022-09-04T02:19:58.102Z,18.60
2022-09-04T02:22:44.917Z,18.80
2022-09-04T02:25:21.170Z,18.85
2022-09-04T02:28:08.167Z,20.02
2022-09-04T02:30:45.071Z,18.70
2022-09-04T02:33:19.566Z,19.60
2022-09-04T02:35:50.400Z,18.70
2022-09-04T02:38:36.372Z,20.13
2022-09-04T02:41:14.943Z,20.70
2022-09-04T02:44:34.972Z,19.98
2022-09-04T02:47:34.199Z,20.00
2022-09-04T02:50:38.791Z,20.23
2022-09-04T02:53:33.156Z,19.75
2022-09-04T02:56:15.527Z,19.02
2022-09-04T02:59:03.321Z,18.90
2022-09-04T03:02:00.740Z,18.30
2022-09-04T03:04:51.833Z,18.40
2022-09-04T03:07:42.617Z,19.10
2022-09-04T03:10:19.218Z,19.23
2022-09-04T03:12:55.066Z,17.67
2022-09-04T03:15:50.190Z,18.00
2022-09-04T03:18:29.925Z,17.63
2022-09-04T03:21:23.383Z,17.17
2022-09-04T03:26:27.493Z,15.00
2022-09-04T03:29:11.874Z,16.23
2022-09-04T03:32:15.119Z,17.05
2022-09-04T03:34:52.330Z,16.65
2022-09-04T03:37:41.608Z,16.95
2022-09-04T03:40:54.156Z,17.33
2022-09-04T03:43:43.431Z,17.43
2022-09-04T03:46:22.403Z,16.73
2022-09-04T03:49:12.537Z,17.67
2022-09-04T03:52:11.100Z,18.45
2022-09-04T03:55:03.415Z,17.50
2022-09-04T03:58:03.107Z,17.67
2022-09-04T04:00:47.847Z,18.95
2022-09-04T04:03:31.740Z,17.15
2022-09-04T04:06:17.083Z,17.92
2022-09-04T04:09:12.580Z,17.73
2022-09-04T04:12:03.979Z,18.75
2022-09-04T04:15:01.851Z,17.80
2022-09-04T04:17:34.328Z,18.13
2022-09-04T04:20:27.435Z,17.83
2022-09-04T04:23:19.297Z,17.55
2022-09-04T04:26:08.705Z,18.80
2022-09-04T04:28:59.511Z,18.27
2022-09-04T04:31:41.558Z,18.92
2022-09-04T04:34:24.541Z,19.02
2022-09-04T04:37:30.121Z,20.10
2022-09-04T04:40:14.781Z,19.50
2022-09-04T04:42:56.948Z,21.48
2022-09-04T04:45:50.908Z,21.80
2022-09-04T04:48:26.772Z,20.70
2022-09-04T04:51:03.777Z,21.13
2022-09-04T04:54:22.341Z,21.60
2022-09-04T04:57:25.425Z,20.92
2022-09-04T05:00:22.809Z,22.55
2022-09-04T05:03:28.049Z,22.02
2022-09-04T05:06:01.328Z,23.08
2022-09-04T05:11:05.239Z,22.90
2022-09-04T05:13:57.305Z,24.38
2022-09-04T05:16:55.360Z,24.05
2022-09-04T05:19:40.458Z,23.63
2022-09-04T05:22:38.694Z,23.73
2022-09-04T05:25:25.174Z,23.60
2022-09-04T05:28:05.051Z,25.23
2022-09-04T05:30:38.702Z,25.95
2022-09-04T05:33:17.735Z,25.15
2022-09-04T05:35:59.819Z,25.20
2022-09-04T05:38:35.940Z,25.27
2022-09-04T05:41:11.268Z,24.65
2022-09-04T05:43:52.555Z,23.15
2022-09-04T05:46:41.550Z,20.15
2022-09-04T05:49:42.864Z,19.90
2022-09-04T05:52:34.108Z,18.35
2022-09-04T05:55:03.992Z,18.77
2022-09-04T05:57:33.868Z,17.55
2022-09-04T06:00:13.591Z,15.60
2022-09-04T06:03:17.022Z,15.15
2022-09-04T06:05:56.725Z,15.38
2022-09-04T06:08:59.180Z,14.95
2022-09-04T06:11:57.588Z,14.23
2022-09-04T06:14:49.468Z,13.27
2022-09-04T06:17:42.715Z,12.63
2022-09-04T06:23:25.236Z,13.25
2022-09-04T06:26:45.034Z,12.05
2022-09-04T06:29:48.929Z,11.48
2022-09-04T06:32:37.266Z,10.10
2022-09-04T06:35:16.509Z,10.68
2022-09-04T06:38:11.074Z,10.48
2022-09-04T06:41:16.786Z,10.50
2022-09-04T06:44:00.178Z,9.40
2022-09-04T06:46:38.673Z,10.10
2022-09-04T06:49:13.634Z,9.52
2022-09-04T06:51:58.702Z,9.32
2022-09-04T06:54:34.567Z,8.68
2022-09-04T06:57:22.467Z,8.52
2022-09-04T07:00:03.866Z,8.73
2022-09-04T07:02:52.038Z,8.10
2022-09-04T07:05:31.659Z,7.10
2022-09-04T07:08:16.822Z,8.95
2022-09-04T07:10:52.608Z,8.18
2022-09-04T07:13:38.381Z,7.97
2022-09-04T07:16:09.201Z,8.20
2022-09-04T07:18:55.739Z,7.50
2022-09-04T07:21:49.383Z,8.40
2022-09-04T07:24:38.603Z,8.85
2022-09-04T07:27:44.688Z,8.10
2022-09-04T07:30:15.124Z,8.45
2022-09-04T07:32:58.585Z,8.52
2022-09-04T07:35:38.535Z,7.20
2022-09-04T07:38:38.620Z,7.28
2022-09-04T07:41:31.192Z,7.90
2022-09-04T07:44:27.752Z,7.35
2022-09-04T07:47:19.457Z,7.95
2022-09-04T07:50:11.842Z,6.68
2022-09-04T07:53:03.628Z,6.70
2022-09-04T07:55:50.711Z,6.15
2022-09-04T07:58:31.681Z,6.43
2022-09-04T08:01:07.731Z,5.90
2022-09-04T08:03:55.629Z,5.30
2022-09-04T08:06:47.959Z,5.97
2022-09-04T08:09:21.117Z,5.13
2022-09-04T08:12:19.030Z,4.75
2022-09-04T08:14:52.530Z,5.25
2022-09-04T08:17:28.578Z,4.60
2022-09-04T08:20:12.606Z,4.32
2022-09-04T08:22:58.743Z,4.72
2022-09-04T08:25:29.934Z,4.55
2022-09-04T08:28:03.123Z,4.32
2022-09-04T08:30:41.577Z,4.10
2022-09-04T08:33:30.052Z,3.78
2022-09-04T08:36:01.983Z,3.30
2022-09-04T08:38:47.279Z,4.30
2022-09-04T08:41:52.929Z,3.00
2022-09-04T08:44:47.538Z,3.03
2022-09-04T08:47:36.516Z,2.60
2022-09-04T08:50:40.156Z,2.63
2022-09-04T08:53:15.449Z,2.50
2022-09-04T08:56:06.788Z,3.10
2022-09-04T08:58:55.976Z,2.33
2022-09-04T09:01:51.559Z,2.67
2022-09-04T09:04:56.489Z,2.25
2022-09-04T09:07:29.357Z,2.90
2022-09-04T09:10:19.645Z,2.50
2022-09-04T09:13:04.402Z,2.22
2022-09-04T09:15:59.261Z,2.25
2022-09-04T09:18:40.354Z,2.38
2022-09-04T09:21:17.496Z,2.58
2022-09-04T09:23:56.999Z,2.33
2022-09-04T09:26:29.415Z,2.17
2022-09-04T09:29:19.156Z,2.10
2022-09-04T09:32:28.778Z,2.17
2022-09-04T09:35:08.658Z,2.10
2022-09-04T09:38:06.321Z,2.10
2022-09-04T09:41:01.082Z,3.15
2022-09-04T09:43:50.777Z,2.50
2022-09-04T09:46:42.391Z,2.30
2022-09-04T09:49:43.744Z,2.08
2022-09-04T09:53:03.846Z,1.95
2022-09-04T09:55:31.086Z,2.08
2022-09-04T09:58:09.438Z,1.75
2022-09-04T10:01:01.188Z,2.42
2022-09-04T10:03:39.127Z,1.83
2022-09-04T10:06:42.080Z,1.80
2022-09-04T10:09:25.043Z,1.98
2022-09-04T10:12:21.174Z,1.70
2022-09-04T10:15:22.795Z,1.80
2022-09-04T10:18:17.283Z,1.60
2022-09-04T10:20:58.115Z,1.58
2022-09-04T10:23:45.588Z,1.52
2022-09-04T10:26:49.891Z,1.90
2022-09-04T10:29:36.288Z,1.55
2022-09-04T10:32:24.995Z,1.38
2022-09-04T10:35:10.932Z,1.80
2022-09-04T10:38:03.087Z,1.63
2022-09-04T10:40:52.051Z,1.40
2022-09-04T10:43:57.803Z,1.60
2022-09-04T10:46:45.217Z,1.70
2022-09-04T10:49:30.307Z,1.20
2022-09-04T10:52:31.331Z,1.48
2022-09-04T10:55:23.218Z,1.48
2022-09-04T10:57:59.809Z,1.70
2022-09-04T11:00:51.268Z,1.45
2022-09-04T11:03:56.256Z,1.58
2022-09-04T11:06:29.360Z,1.55
2022-09-04T11:09:14.683Z,1.80
2022-09-04T11:12:09.722Z,1.50
2022-09-04T11:14:45.641Z,1.40
2022-09-04T11:17:12.881Z,1.58
2022-09-04T11:19:58.001Z,1.60
2022-09-04T11:22:36.093Z,1.17
2022-09-04T11:25:53.326Z,1.05
2022-09-04T11:28:44.103Z,1.30
2022-09-04T11:31:33.808Z,1.20
2022-09-04T11:34:21.222Z,1.20
2022-09-04T11:37:19.368Z,1.52
2022-09-04T11:40:22.039Z,1.40
2022-09-04T11:43:20.679Z,1.35
2022-09-04T11:46:21.190Z,1.02
2022-09-04T11:49:21.416Z,1.30
2022-09-04T11:52:23.707Z,2.58
2022-09-04T11:55:18.227Z,1.15
2022-09-04T11:58:10.312Z,2.05
2022-09-04T12:00:59.127Z,1.20
2022-09-04T12:04:03.005Z,1.10
2022-09-04T12:06:51.313Z,1.10
2022-09-04T12:09:53.536Z,1.48
2022-09-04T12:12:50.680Z,1.33
2022-09-04T12:15:17.320Z,1.00
2022-09-04T12:17:59.075Z,1.15
2022-09-04T12:20:45.544Z,1.10
2022-09-04T12:23:26.427Z,1.02
2022-09-04T12:26:28.384Z,0.90
2022-09-04T12:29:18.488Z,0.95
2022-09-04T12:32:20.737Z,1.67
2022-09-04T12:35:31.617Z,1.27
2022-09-04T12:38:17.426Z,1.10
2022-09-04T12:40:52.862Z,1.00
2022-09-04T12:43:40.590Z,1.10
2022-09-04T12:46:35.176Z,1.23
2022-09-04T12:49:37.527Z,1.00
2022-09-04T12:52:19.002Z,1.10
2022-09-04T12:55:14.518Z,1.35
2022-09-04T12:58:03.019Z,1.40
2022-09-04T13:00:46.031Z,1.30
2022-09-04T13:03:38.358Z,1.42
2022-09-04T13:06:21.747Z,1.20
2022-09-04T13:09:22.014Z,1.50
2022-09-04T13:12:03.166Z,1.75
2022-09-04T13:14:57.502Z,1.65
2022-09-04T13:17:58.148Z,1.60
2022-09-04T13:21:03.190Z,1.40
2022-09-04T13:23:52.075Z,1.50
2022-09-04T13:26:55.967Z,1.48
2022-09-04T13:29:51.381Z,1.75
2022-09-04T13:33:00.899Z,1.55
2022-09-04T13:35:36.459Z,1.80
2022-09-04T13:38:42.316Z,1.67
2022-09-04T13:41:34.017Z,1.70
2022-09-04T13:44:38.493Z,1.57
2022-09-04T13:47:15.556Z,1.60
2022-09-04T13:49:55.340Z,2.10
2022-09-04T13:52:29.857Z,1.60
2022-09-04T13:55:09.329Z,1.35
2022-09-04T13:57:46.222Z,2.00
2022-09-04T14:00:16.816Z,1.45
2022-09-04T14:02:44.750Z,1.70
2022-09-04T14:05:16.633Z,1.40
2022-09-04T14:07:49.091Z,1.95
2022-09-04T14:10:32.230Z,1.58
2022-09-04T14:13:36.160Z,1.40
2022-09-04T14:16:11.906Z,1.92
2022-09-04T14:19:10.859Z,1.85
2022-09-04T14:21:52.618Z,1.73
2022-09-04T14:24:38.640Z,1.70
2022-09-04T14:27:35.499Z,1.65
2022-09-04T14:30:10.135Z,1.88
2022-09-04T14:32:58.109Z,1.33
2022-09-04T14:35:49.506Z,1.67
2022-09-04T14:38:24.024Z,1.80
2022-09-04T14:40:57.348Z,1.50
2022-09-04T14:43:44.259Z,1.50
2022-09-04T14:46:59.511Z,1.67
2022-09-04T14:49:31.758Z,1.67
2022-09-04T14:52:08.942Z,1.90
2022-09-04T14:54:43.416Z,1.50
2022-09-04T14:57:21.380Z,2.00
2022-09-04T15:00:02.083Z,1.65
2022-09-04T15:02:56.310Z,1.80
2022-09-04T15:05:54.449Z,1.58
2022-09-04T15:08:36.772Z,1.70
2022-09-04T15:11:31.057Z,1.40
2022-09-04T15:14:28.301Z,1.13
2022-09-04T15:17:06.230Z,1.25
2022-09-04T15:19:59.861Z,1.52
2022-09-04T15:22:55.521Z,1.52
2022-09-04T15:25:57.769Z,2.10
2022-09-04T15:28:44.957Z,1.55
2022-09-04T15:31:31.550Z,1.42
2022-09-04T15:34:04.593Z,1.50
2022-09-04T15:36:32.886Z,1.70
2022-09-04T15:39:06.009Z,1.60
2022-09-04T15:41:34.347Z,1.70
2022-09-04T15:44:17.348Z,1.33
2022-09-04T15:46:58.058Z,1.90
2022-09-04T15:49:29.892Z,1.88
2022-09-04T15:52:28.024Z,1.83
2022-09-04T15:55:32.314Z,1.90
2022-09-04T15:58:08.422Z,1.75
2022-09-04T16:00:38.872Z,1.90
2022-09-04T16:03:17.335Z,1.35
2022-09-04T16:05:53.147Z,1.75
2022-09-04T16:08:37.060Z,2.28
2022-09-04T16:11:12.268Z,2.00
2022-09-04T16:13:58.426Z,1.85
2022-09-04T16:16:44.412Z,1.80
2022-09-04T16:19:45.602Z,1.50
2022-09-04T16:22:38.672Z,1.60
2022-09-04T16:27:43.607Z,1.75
2022-09-04T16:30:41.679Z,1.50
2022-09-04T16:33:28.823Z,1.73
2022-09-04T16:36:06.136Z,1.42
2022-09-04T16:39:14.117Z,1.27
2022-09-04T16:41:52.366Z,1.60
2022-09-04T16:44:25.647Z,1.58
2022-09-04T16:47:10.336Z,1.80
2022-09-04T16:49:40.776Z,1.60
2022-09-04T16:52:21.138Z,1.50
2022-09-04T16:54:56.136Z,1.92
2022-09-04T16:57:43.293Z,1.83
2022-09-04T17:00:17.525Z,1.30
2022-09-04T17:02:54.227Z,1.60
2022-09-04T17:05:34.633Z,2.28
2022-09-04T17:08:07.986Z,2.25
2022-09-04T17:10:54.889Z,1.90
2022-09-04T17:13:43.604Z,1.50
2022-09-04T17:16:22.994Z,1.30
2022-09-04T17:18:55.393Z,1.50
2022-09-04T17:27:46.103Z,1.77
2022-09-04T17:29:09.735Z,1.60
2022-09-04T17:29:11.128Z,1.50
2022-09-04T17:31:49.570Z,1.67
2022-09-04T17:37:31.505Z,1.45
2022-09-04T17:40:52.363Z,1.77
2022-09-04T17:40:55.267Z,1.27
2022-09-04T17:43:36.547Z,1.52
2022-09-04T17:46:28.185Z,1.50
2022-09-04T17:48:56.503Z,1.50
2022-09-04T17:51:27.590Z,1.13
2022-09-04T17:54:00.648Z,1.55
2022-09-04T17:57:01.067Z,1.27
2022-09-04T17:59:45.792Z,1.60
2022-09-04T18:02:18.089Z,1.52
2022-09-04T18:05:00.431Z,1.67
2022-09-04T18:08:08.291Z,1.53
2022-09-04T18:10:31.243Z,2.25
2022-09-04T18:13:36.663Z,2.20
2022-09-04T18:16:26.015Z,2.40
2022-09-04T18:18:58.665Z,2.05
2022-09-04T18:22:07.774Z,2.28
2022-09-04T18:24:53.931Z,2.08
2022-09-04T18:27:35.292Z,2.10
2022-09-04T18:34:36.343Z,2.70
2022-09-04T18:37:18.979Z,2.90
2022-09-04T18:37:21.339Z,3.20
2022-09-04T18:39:20.923Z,2.95
2022-09-04T18:50:22.758Z,2.38
2022-09-04T18:50:32.437Z,2.30
2022-09-04T18:50:52.397Z,2.22
2022-09-04T18:51:30.307Z,4.50
2022-09-04T18:54:21.334Z,8.23
2022-09-04T18:56:56.687Z,5.03
2022-09-04T18:59:42.891Z,4.15
2022-09-04T19:02:30.694Z,4.60
2022-09-04T19:05:08.690Z,3.63
2022-09-04T19:07:45.278Z,2.28
2022-09-04T19:10:33.606Z,2.75
2022-09-04T19:13:21.897Z,3.17
2022-09-04T19:16:07.088Z,2.47
2022-09-04T19:18:54.263Z,2.60
2022-09-04T19:21:31.665Z,2.83
2022-09-04T19:24:26.016Z,2.80
2022-09-04T19:27:27.010Z,2.60
2022-09-04T19:30:18.505Z,2.97
2022-09-04T19:32:49.036Z,3.20
2022-09-04T19:35:44.947Z,3.05
2022-09-04T19:45:36.202Z,2.45
2022-09-04T19:45:54.593Z,2.63
2022-09-04T19:46:13.202Z,3.35
2022-09-04T19:47:28.558Z,2.42
2022-09-04T19:53:18.301Z,2.75
2022-09-04T19:53:34.522Z,3.03
2022-09-04T19:56:00.942Z,2.53
2022-09-04T19:58:51.882Z,2.85
2022-09-04T20:01:26.304Z,2.80
2022-09-04T20:04:00.070Z,2.50
2022-09-04T20:06:33.822Z,2.58
2022-09-04T20:09:33.186Z,2.83
2022-09-04T20:12:29.469Z,2.30
2022-09-04T20:15:12.928Z,2.78
2022-09-04T20:18:09.863Z,2.65
2022-09-04T20:20:58.827Z,3.08
2022-09-04T20:23:47.891Z,2.72
2022-09-04T20:26:26.330Z,3.00
2022-09-04T20:29:42.900Z,2.83
2022-09-04T20:32:22.237Z,3.42
2022-09-04T20:35:13.192Z,3.35
2022-09-04T20:38:12.443Z,2.83
2022-09-04T20:40:45.552Z,3.20
2022-09-04T20:43:26.693Z,2.88
2022-09-04T20:50:36.030Z,3.10
2022-09-04T20:52:50.229Z,3.00
2022-09-04T20:52:55.451Z,2.88
2022-09-04T20:54:55.088Z,2.67
2022-09-04T20:59:06.217Z,2.90
2022-09-04T21:03:09.428Z,2.78
2022-09-04T21:03:50.171Z,2.90
2022-09-04T21:06:32.014Z,3.25
2022-09-04T21:09:29.674Z,2.83
2022-09-04T21:12:22.534Z,2.63
2022-09-04T21:15:12.298Z,3.05
2022-09-04T21:18:03.823Z,2.38
2022-09-04T21:20:33.715Z,3.42
2022-09-04T21:23:27.792Z,2.92
2022-09-04T21:26:20.723Z,3.10
2022-09-04T21:29:10.691Z,3.10
2022-09-04T21:32:09.603Z,2.45
2022-09-04T21:34:43.981Z,2.72
2022-09-04T21:37:33.816Z,2.63
2022-09-04T21:40:51.187Z,2.90
2022-09-04T21:43:37.743Z,3.20
2022-09-04T21:46:07.769Z,2.80
2022-09-04T21:48:56.148Z,2.90
2022-09-04T21:52:12.304Z,3.20
2022-09-04T21:58:26.489Z,3.25
2022-09-04T22:02:30.949Z,3.00
2022-09-04T22:02:45.252Z,2.78
2022-09-04T22:03:55.028Z,3.17
2022-09-04T22:10:08.395Z,3.10
2022-09-04T22:13:30.856Z,2.50
2022-09-04T22:13:43.202Z,3.35
2022-09-04T22:16:13.715Z,3.13
2022-09-04T22:19:14.199Z,3.13
2022-09-04T22:22:20.652Z,3.00
2022-09-04T22:25:24.243Z,2.90
2022-09-04T22:28:09.902Z,3.30
2022-09-04T22:31:01.053Z,3.15
2022-09-04T22:34:15.921Z,3.20
2022-09-04T22:37:02.947Z,3.80
2022-09-04T22:39:39.540Z,3.22
2022-09-04T22:42:31.322Z,3.92
2022-09-04T22:45:40.343Z,3.03
2022-09-04T22:48:37.924Z,3.38
2022-09-04T22:51:36.435Z,3.13
2022-09-04T22:54:06.163Z,2.80
2022-09-04T22:56:40.615Z,3.20
2022-09-04T22:59:27.062Z,3.22
2022-09-04T23:02:14.021Z,3.90
2022-09-04T23:04:47.180Z,3.30
2022-09-04T23:12:28.509Z,3.63
2022-09-04T23:13:56.670Z,3.88
2022-09-04T23:14:06.660Z,3.53
2022-09-04T23:16:40.961Z,3.40
2022-09-04T23:25:44.207Z,3.92
2022-09-04T23:26:42.065Z,4.40
2022-09-04T23:26:48.845Z,4.35
2022-09-04T23:28:51.914Z,4.25
2022-09-04T23:31:37.436Z,4.43
2022-09-04T23:34:13.576Z,4.10
2022-09-04T23:36:51.957Z,4.45
2022-09-04T23:39:41.952Z,4.47
2022-09-04T23:42:27.295Z,3.90
2022-09-04T23:45:10.888Z,4.57
2022-09-04T23:48:03.725Z,4.10
2022-09-04T23:50:37.107Z,4.13
2022-09-04T23:53:31.465Z,4.05
2022-09-04T23:56:46.307Z,4.55
2022-09-04T23:59:37.772Z,4.45
